createdAt,value
2019-05-18T00:01:51.843Z,11.53
2019-05-18T00:04:22.439Z,11.50
2019-05-18T00:06:52.990Z,11.54
2019-05-18T00:09:23.514Z,11.59
2019-05-18T00:11:54.102Z,11.63
2019-05-18T00:14:24.739Z,11.53
2019-05-18T00:16:55.319Z,11.50
2019-05-18T00:19:25.989Z,11.44
2019-05-18T00:21:56.484Z,11.56
2019-05-18T00:24:27.015Z,11.50
2019-05-18T00:26:57.517Z,11.49
2019-05-18T00:29:27.988Z,11.59
2019-05-18T00:31:58.648Z,11.58
2019-05-18T00:34:29.274Z,11.49
2019-05-18T00:36:59.824Z,11.61
2019-05-18T00:39:30.379Z,11.59
2019-05-18T00:42:00.955Z,11.60
2019-05-18T00:44:31.470Z,11.60
2019-05-18T00:47:02.029Z,11.62
2019-05-18T00:49:32.633Z,11.68
2019-05-18T00:52:03.152Z,11.61
2019-05-18T00:54:33.753Z,11.54
2019-05-18T00:57:04.283Z,11.53
2019-05-18T00:59:34.853Z,11.51
2019-05-18T01:02:05.409Z,11.48
2019-05-18T01:04:35.961Z,11.55
2019-05-18T01:07:06.805Z,11.51
2019-05-18T01:09:37.566Z,11.64
2019-05-18T01:12:08.136Z,11.53
2019-05-18T01:14:38.610Z,11.51
2019-05-18T01:17:09.451Z,11.53
2019-05-18T01:19:40.831Z,11.69
2019-05-18T01:22:11.356Z,11.62
2019-05-18T01:24:41.907Z,11.64
2019-05-18T01:27:12.512Z,11.55
2019-05-18T01:29:43.046Z,11.67
2019-05-18T01:32:13.749Z,11.67
2019-05-18T01:34:44.410Z,11.71
2019-05-18T01:37:19.297Z,11.66
2019-05-18T01:39:49.828Z,11.76
2019-05-18T01:42:20.344Z,11.78
2019-05-18T01:44:50.871Z,11.61
2019-05-18T01:47:21.870Z,11.50
2019-05-18T01:49:52.398Z,11.57
2019-05-18T01:52:22.944Z,11.58
2019-05-18T01:54:53.456Z,11.61
2019-05-18T01:57:24.109Z,11.42
2019-05-18T01:59:54.595Z,11.40
2019-05-18T02:02:25.128Z,11.52
2019-05-18T02:04:55.658Z,11.58
2019-05-18T02:07:26.123Z,11.51
2019-05-18T02:09:56.643Z,11.54
2019-05-18T02:12:27.116Z,11.59
2019-05-18T02:14:57.642Z,11.61
2019-05-18T02:17:28.177Z,11.66
2019-05-18T02:19:58.597Z,11.52
2019-05-18T02:22:29.116Z,11.51
2019-05-18T02:24:59.627Z,11.57
2019-05-18T02:27:30.104Z,11.59
2019-05-18T02:30:00.618Z,11.62
2019-05-18T02:32:31.163Z,11.64
2019-05-18T02:35:01.564Z,11.62
2019-05-18T02:37:32.091Z,11.60
2019-05-18T02:40:02.617Z,11.62
2019-05-18T02:42:33.355Z,11.54
2019-05-18T02:45:04.091Z,11.56
2019-05-18T02:47:34.636Z,11.52
2019-05-18T02:50:05.682Z,11.40
2019-05-18T02:52:36.168Z,11.41
2019-05-18T02:55:07.722Z,11.37
2019-05-18T02:57:38.254Z,11.43
2019-05-18T03:00:10.292Z,11.47
2019-05-18T03:02:40.784Z,11.46
2019-05-18T03:05:11.602Z,11.37
2019-05-18T03:07:42.142Z,11.40
2019-05-18T03:10:12.840Z,11.39
2019-05-18T03:12:43.691Z,11.35
2019-05-18T03:15:15.124Z,11.35
2019-05-18T03:17:45.658Z,11.35
2019-05-18T03:20:16.803Z,11.37
2019-05-18T03:22:47.360Z,11.29
2019-05-18T03:25:18.830Z,11.21
2019-05-18T03:27:49.404Z,11.28
2019-05-18T03:30:21.919Z,11.33
2019-05-18T03:32:52.555Z,11.35
2019-05-18T03:35:23.270Z,11.45
2019-05-18T03:37:53.906Z,11.44
2019-05-18T03:40:24.413Z,11.50
2019-05-18T04:09:52.338Z,11.69
2019-05-18T04:12:22.977Z,11.79
2019-05-18T04:14:53.590Z,11.84
2019-05-18T04:17:24.346Z,11.95
2019-05-18T04:19:54.883Z,11.90
2019-05-18T04:22:25.471Z,11.89
2019-05-18T04:24:56.246Z,11.95
2019-05-18T04:27:26.917Z,11.97
2019-05-18T04:29:57.589Z,12.13
2019-05-18T04:32:28.220Z,12.18
2019-05-18T04:34:58.880Z,12.22
2019-05-18T04:37:29.510Z,12.23
2019-05-18T04:40:00.399Z,12.18
2019-05-18T04:42:31.029Z,12.21
2019-05-18T04:45:01.621Z,12.32
2019-05-18T04:47:32.256Z,12.25
2019-05-18T04:50:05.722Z,12.40
2019-05-18T04:52:35.262Z,12.48
2019-05-18T04:55:06.011Z,12.47
2019-05-18T04:57:36.674Z,12.55
2019-05-18T05:00:08.774Z,12.53
2019-05-18T05:02:39.392Z,12.51
2019-05-18T05:05:10.313Z,12.56
2019-05-18T05:07:40.970Z,12.54
2019-05-18T05:10:11.838Z,12.52
2019-05-18T05:12:42.464Z,12.68
2019-05-18T05:15:13.688Z,12.59
2019-05-18T05:17:44.322Z,12.67
2019-05-18T05:20:20.140Z,12.69
2019-05-18T05:22:49.397Z,12.62
2019-05-18T05:25:20.241Z,12.61
2019-05-18T05:27:50.909Z,12.65
2019-05-18T05:30:21.519Z,12.72
2019-05-18T05:32:52.034Z,12.85
2019-05-18T05:35:22.563Z,12.93
2019-05-18T05:37:53.083Z,13.05
2019-05-18T05:40:23.722Z,13.06
2019-05-18T05:42:54.246Z,13.25
2019-05-18T05:45:24.821Z,13.33
2019-05-18T05:47:55.350Z,13.42
2019-05-18T05:50:35.090Z,13.54
2019-05-18T05:52:58.200Z,13.67
2019-05-18T05:55:28.983Z,13.76
2019-05-18T05:57:59.632Z,13.79
2019-05-18T06:00:30.187Z,13.84
2019-05-18T06:03:00.670Z,13.99
2019-05-18T06:05:31.340Z,13.99
2019-05-18T06:08:01.945Z,14.02
2019-05-18T06:10:32.507Z,14.10
2019-05-18T06:13:03.066Z,14.06
2019-05-18T06:15:33.644Z,14.06
2019-05-18T06:18:04.207Z,14.24
2019-05-18T06:20:50.130Z,14.23
2019-05-18T06:23:06.947Z,14.43
2019-05-18T06:25:37.538Z,14.39
2019-05-18T06:28:08.060Z,14.42
2019-05-18T06:30:39.396Z,14.43
2019-05-18T06:33:09.901Z,14.33
2019-05-18T06:35:40.414Z,14.44
2019-05-18T06:38:10.968Z,14.36
2019-05-18T06:40:41.477Z,14.59
2019-05-18T06:43:12.036Z,14.74
2019-05-18T06:45:42.548Z,14.66
2019-05-18T06:48:13.101Z,14.71
2019-05-18T06:50:44.775Z,14.84
2019-05-18T06:53:15.383Z,14.82
2019-05-18T06:55:45.934Z,14.80
2019-05-18T06:58:17.062Z,14.91
2019-05-18T07:00:47.612Z,14.99
2019-05-18T07:03:18.148Z,15.09
2019-05-18T07:05:48.582Z,15.16
2019-05-18T07:08:19.130Z,15.08
2019-05-18T07:10:49.628Z,15.05
2019-05-18T07:13:20.109Z,15.12
2019-05-18T07:15:50.813Z,15.25
2019-05-18T07:18:21.348Z,15.18
2019-05-18T07:20:51.884Z,15.12
2019-05-18T07:23:22.517Z,15.45
2019-05-18T07:25:53.036Z,15.31
2019-05-18T07:28:23.577Z,15.49
2019-05-18T07:30:54.133Z,15.61
2019-05-18T07:33:24.825Z,15.68
2019-05-18T07:35:55.424Z,15.65
2019-05-18T07:38:26.216Z,15.68
2019-05-18T07:40:57.090Z,15.78
2019-05-18T07:43:27.851Z,15.83
2019-05-18T07:46:08.661Z,16.03
2019-05-18T07:48:38.456Z,16.08
2019-05-18T07:51:09.242Z,16.07
2019-05-18T07:53:39.811Z,16.12
2019-05-18T07:56:10.448Z,16.01
2019-05-18T07:58:41.146Z,16.19
2019-05-18T08:01:11.684Z,16.28
2019-05-18T08:03:42.244Z,16.39
2019-05-18T08:06:12.781Z,16.43
2019-05-18T08:08:43.327Z,16.42
2019-05-18T08:11:13.882Z,16.54
2019-05-18T08:13:44.425Z,16.49
2019-05-18T08:16:14.926Z,16.33
2019-05-18T08:18:45.468Z,16.47
2019-05-18T08:21:16.174Z,16.55
2019-05-18T08:23:46.910Z,16.69
2019-05-18T08:26:17.443Z,16.69
2019-05-18T08:28:48.008Z,16.66
2019-05-18T08:31:18.621Z,17.04
2019-05-18T08:33:49.137Z,17.16
2019-05-18T08:36:19.751Z,17.29
2019-05-18T08:38:50.290Z,17.20
2019-05-18T08:41:20.772Z,17.31
2019-05-18T08:43:51.267Z,17.26
2019-05-18T08:46:21.728Z,17.29
2019-05-18T08:48:52.418Z,17.23
2019-05-18T08:51:23.087Z,17.31
2019-05-18T08:53:53.673Z,17.37
2019-05-18T08:56:24.234Z,17.24
2019-05-18T08:58:54.730Z,17.27
2019-05-18T09:01:25.211Z,17.36
2019-05-18T09:03:55.751Z,17.42
2019-05-18T09:06:26.302Z,17.58
2019-05-18T09:08:56.778Z,17.60
2019-05-18T09:11:27.258Z,17.88
2019-05-18T09:13:57.833Z,17.82
2019-05-18T09:16:28.333Z,17.81
2019-05-18T09:18:58.797Z,17.95
2019-05-18T09:21:29.430Z,18.19
2019-05-18T09:24:00.429Z,18.28
2019-05-18T09:26:31.241Z,18.40
2019-05-18T09:29:02.112Z,18.56
2019-05-18T09:31:32.683Z,18.91
2019-05-18T09:34:03.215Z,18.87
2019-05-18T09:36:33.782Z,18.92
2019-05-18T09:39:05.021Z,18.81
2019-05-18T09:56:51.377Z,18.98
2019-05-18T09:59:21.850Z,19.02
2019-05-18T10:01:52.545Z,19.10
2019-05-18T10:04:23.094Z,19.12
2019-05-18T10:06:53.700Z,19.24
2019-05-18T10:09:24.408Z,19.44
2019-05-18T10:11:55.005Z,19.54
2019-05-18T10:14:25.624Z,19.70
2019-05-18T10:16:56.186Z,19.66
2019-05-18T10:19:26.737Z,19.51
2019-05-18T10:21:57.328Z,19.56
2019-05-18T10:24:27.852Z,19.58
2019-05-18T10:26:58.426Z,20.00
2019-05-18T10:29:28.994Z,20.02
2019-05-18T10:31:59.538Z,19.86
2019-05-18T10:34:30.206Z,19.75
2019-05-18T10:37:00.700Z,20.12
2019-05-18T10:39:31.358Z,20.17
2019-05-18T10:42:01.917Z,19.89
2019-05-18T10:44:32.454Z,19.93
2019-05-18T10:47:02.998Z,19.91
2019-05-18T10:49:33.700Z,19.87
2019-05-18T10:52:04.764Z,20.04
2019-05-18T10:54:35.784Z,20.09
2019-05-18T10:57:06.359Z,20.02
2019-05-18T10:59:37.695Z,19.70
2019-05-18T11:02:08.423Z,19.40
2019-05-18T11:04:39.015Z,19.42
2019-05-18T11:07:09.547Z,19.78
2019-05-18T11:09:40.266Z,19.93
2019-05-18T11:12:11.048Z,20.13
2019-05-18T11:14:41.595Z,20.50
2019-05-18T11:17:12.155Z,20.51
2019-05-18T11:19:42.681Z,20.26
2019-05-18T11:22:13.450Z,19.99
2019-05-18T11:24:44.017Z,19.88
2019-05-18T11:27:14.583Z,20.33
2019-05-18T11:29:45.124Z,20.62
2019-05-18T11:32:15.669Z,20.26
2019-05-18T11:34:46.309Z,20.45
2019-05-18T11:37:16.846Z,20.93
2019-05-18T11:39:47.481Z,21.40
2019-05-18T11:42:18.062Z,21.26
2019-05-18T11:44:48.626Z,21.00
2019-05-18T11:47:19.699Z,21.04
2019-05-18T11:49:50.256Z,21.63
2019-05-18T11:52:20.808Z,21.65
2019-05-18T11:54:51.425Z,21.49
2019-05-18T11:57:22.064Z,20.88
2019-05-18T11:59:52.701Z,20.62
2019-05-18T12:02:23.288Z,21.21
2019-05-18T12:04:53.777Z,21.68
2019-05-18T12:07:24.317Z,22.23
2019-05-18T12:09:54.950Z,21.96
2019-05-18T12:12:25.547Z,22.08
2019-05-18T12:14:56.190Z,22.11
2019-05-18T12:17:30.652Z,22.48
2019-05-18T12:20:01.162Z,23.18
2019-05-18T12:22:31.731Z,23.56
2019-05-18T12:25:02.313Z,23.94
2019-05-18T12:27:33.155Z,25.70
2019-05-18T12:30:03.777Z,24.73
2019-05-18T12:32:34.233Z,25.80
2019-05-18T12:35:05.253Z,26.44
2019-05-18T12:37:35.804Z,26.75
2019-05-18T12:40:07.209Z,27.72
2019-05-18T12:42:37.773Z,27.47
2019-05-18T12:45:09.752Z,28.42
2019-05-18T12:47:40.313Z,29.00
2019-05-18T12:50:13.446Z,28.95
2019-05-18T12:52:44.037Z,28.72
2019-05-18T12:55:16.371Z,27.43
2019-05-18T12:57:46.881Z,24.73
2019-05-18T13:00:19.012Z,24.57
2019-05-18T13:02:49.729Z,25.72
2019-05-18T13:05:20.417Z,27.69
2019-05-18T13:07:51.003Z,28.87
2019-05-18T13:10:22.169Z,29.24
2019-05-18T13:12:52.719Z,31.04
2019-05-18T13:15:23.791Z,30.21
2019-05-18T13:17:54.460Z,28.10
2019-05-18T13:20:25.055Z,28.66
2019-05-18T13:22:55.598Z,30.00
2019-05-18T13:25:26.146Z,31.27
2019-05-18T13:27:58.117Z,29.40
2019-05-18T13:30:28.998Z,27.61
2019-05-18T13:32:59.618Z,26.40
2019-05-18T13:35:30.152Z,25.22
2019-05-18T13:38:00.974Z,24.53
2019-05-18T13:40:31.483Z,25.97
2019-05-18T13:43:02.084Z,28.14
2019-05-18T13:45:33.292Z,29.41
2019-05-18T13:48:03.860Z,29.83
2019-05-18T13:50:34.405Z,30.66
2019-05-18T13:53:04.965Z,30.56
2019-05-18T13:55:35.901Z,31.01
2019-05-18T13:58:06.808Z,28.11
2019-05-18T14:00:37.437Z,26.45
2019-05-18T14:03:07.955Z,26.75
2019-05-18T14:05:38.488Z,25.44
2019-05-18T14:08:09.081Z,26.25
2019-05-18T14:10:39.633Z,26.97
2019-05-18T14:13:10.163Z,26.07
2019-05-18T14:15:40.754Z,26.59
2019-05-18T14:18:11.370Z,26.20
2019-05-18T14:20:41.899Z,25.22
2019-05-18T14:23:12.565Z,26.39
2019-05-18T14:25:46.053Z,28.22
2019-05-18T14:28:15.457Z,28.78
2019-05-18T14:30:46.094Z,29.60
2019-05-18T14:33:16.810Z,29.52
2019-05-18T14:35:47.411Z,29.79
2019-05-18T14:38:17.978Z,29.13
2019-05-18T14:40:48.527Z,28.92
2019-05-18T14:43:19.071Z,29.06
2019-05-18T14:45:49.761Z,29.04
2019-05-18T14:48:20.438Z,29.41
2019-05-18T14:50:50.930Z,29.36
2019-05-18T14:53:21.581Z,29.60
2019-05-18T14:55:52.183Z,29.03
2019-05-18T14:58:22.784Z,29.99
2019-05-18T15:00:55.049Z,29.37
2019-05-18T15:03:25.725Z,28.83
2019-05-18T15:05:56.260Z,29.68
2019-05-18T15:08:27.245Z,29.20
2019-05-18T15:10:57.749Z,29.76
2019-05-18T15:13:28.290Z,29.60
2019-05-18T15:15:58.843Z,29.51
2019-05-18T15:18:29.487Z,27.44
2019-05-18T15:20:59.974Z,27.62
2019-05-18T15:23:30.678Z,26.86
2019-05-18T15:26:01.322Z,25.70
2019-05-18T15:28:32.025Z,24.81
2019-05-18T15:31:02.736Z,24.03
2019-05-18T15:33:33.274Z,24.22
2019-05-18T15:36:03.849Z,25.62
2019-05-18T15:38:34.445Z,26.78
2019-05-18T15:41:04.875Z,27.41
2019-05-18T15:43:35.357Z,27.94
2019-05-18T15:46:05.855Z,28.47
2019-05-18T15:48:36.408Z,28.03
2019-05-18T15:51:06.904Z,28.06
2019-05-18T15:53:37.403Z,27.44
2019-05-18T15:56:07.865Z,27.93
2019-05-18T15:58:38.388Z,27.54
2019-05-18T16:01:08.906Z,26.49
2019-05-18T16:03:39.399Z,26.14
2019-05-18T16:06:09.867Z,26.69
2019-05-18T16:08:40.382Z,26.79
2019-05-18T16:11:10.856Z,27.32
2019-05-18T16:13:41.362Z,26.75
2019-05-18T16:16:11.840Z,26.88
2019-05-18T16:18:42.685Z,26.07
2019-05-18T16:21:13.175Z,26.67
2019-05-18T16:23:43.662Z,26.42
2019-05-18T16:26:21.702Z,25.80
2019-05-18T16:28:46.381Z,26.08
2019-05-18T16:31:16.865Z,26.17
2019-05-18T16:33:47.354Z,26.17
2019-05-18T16:36:17.807Z,26.06
2019-05-18T16:38:48.346Z,25.41
2019-05-18T16:41:21.460Z,24.73
2019-05-18T16:43:51.056Z,24.07
2019-05-18T16:46:21.652Z,23.75
2019-05-18T16:48:52.110Z,23.33
2019-05-18T16:51:22.568Z,23.87
2019-05-18T16:53:53.110Z,23.24
2019-05-18T16:56:34.510Z,22.79
2019-05-18T16:58:55.788Z,22.50
2019-05-18T17:01:26.285Z,21.93
2019-05-18T17:03:56.820Z,22.08
2019-05-18T17:06:27.385Z,22.07
2019-05-18T17:08:57.992Z,21.88
2019-05-18T17:11:28.499Z,21.76
2019-05-18T17:13:58.971Z,21.68
2019-05-18T17:16:29.493Z,21.64
2019-05-18T17:18:59.962Z,21.55
2019-05-18T17:21:30.436Z,21.66
2019-05-18T17:24:00.932Z,21.60
2019-05-18T17:26:31.546Z,21.50
2019-05-18T17:29:02.048Z,21.20
2019-05-18T17:31:32.634Z,20.64
2019-05-18T17:34:03.079Z,20.50
2019-05-18T17:36:33.758Z,20.23
2019-05-18T17:39:05.520Z,20.17
2019-05-18T17:41:36.010Z,19.88
2019-05-18T17:44:06.495Z,19.89
2019-05-18T17:46:37.000Z,19.80
2019-05-18T17:49:07.526Z,19.71
2019-05-18T17:51:38.039Z,19.70
2019-05-18T17:54:08.600Z,19.67
2019-05-18T17:56:39.074Z,19.66
2019-05-18T17:59:09.590Z,19.63
2019-05-18T18:01:40.119Z,19.63
2019-05-18T18:04:10.605Z,19.66
2019-05-18T18:06:41.069Z,19.53
2019-05-18T18:09:11.587Z,19.49
2019-05-18T18:11:42.080Z,19.33
2019-05-18T18:14:12.566Z,19.36
2019-05-18T18:16:43.076Z,19.27
2019-05-18T18:19:13.567Z,19.25
2019-05-18T18:21:44.053Z,19.19
2019-05-18T18:24:14.658Z,19.04
2019-05-18T18:26:45.129Z,18.99
2019-05-18T18:29:15.702Z,18.76
2019-05-18T18:31:46.303Z,18.70
2019-05-18T18:34:16.841Z,18.46
2019-05-18T18:36:47.553Z,18.42
2019-05-18T18:39:18.115Z,18.43
2019-05-18T18:41:48.634Z,18.24
2019-05-18T18:44:19.205Z,18.30
2019-05-18T18:46:49.719Z,18.24
2019-05-18T18:49:20.170Z,18.22
2019-05-18T18:51:50.674Z,17.98
2019-05-18T18:54:21.218Z,18.04
2019-05-18T18:56:51.716Z,17.95
2019-05-18T18:59:22.257Z,17.90
2019-05-18T19:01:52.769Z,17.82
2019-05-18T19:04:23.270Z,17.69
2019-05-18T19:06:53.871Z,17.66
2019-05-18T19:09:24.382Z,17.55
2019-05-18T19:11:54.929Z,17.38
2019-05-18T19:14:25.440Z,17.36
2019-05-18T19:16:56.002Z,17.26
2019-05-18T19:19:26.475Z,17.19
2019-05-18T19:21:56.954Z,17.24
2019-05-18T19:24:27.513Z,17.11
2019-05-18T19:26:58.044Z,16.86
2019-05-18T19:29:28.582Z,16.75
2019-05-18T19:31:59.146Z,16.80
2019-05-18T19:34:29.652Z,16.70
2019-05-18T19:37:00.146Z,16.52
2019-05-18T19:39:30.674Z,16.61
2019-05-18T19:42:01.260Z,16.41
2019-05-18T19:44:31.699Z,16.45
2019-05-18T19:47:02.268Z,16.46
2019-05-18T19:49:32.817Z,16.36
2019-05-18T19:52:03.281Z,16.23
2019-05-18T19:54:33.870Z,16.25
2019-05-18T19:57:04.376Z,15.95
2019-05-18T19:59:34.839Z,15.90
2019-05-18T20:02:05.652Z,15.83
2019-05-18T20:04:36.145Z,15.71
2019-05-18T20:07:06.635Z,15.76
2019-05-18T20:09:37.175Z,15.59
2019-05-18T20:12:07.661Z,15.70
2019-05-18T20:14:38.149Z,15.45
2019-05-18T20:17:08.713Z,15.38
2019-05-18T20:19:39.949Z,15.34
2019-05-18T20:22:10.664Z,15.24
2019-05-18T20:24:41.281Z,15.16
2019-05-18T20:27:11.746Z,15.10
2019-05-18T20:29:42.280Z,14.99
2019-05-18T20:32:12.883Z,14.89
2019-05-18T20:34:43.363Z,14.92
2019-05-18T20:37:13.909Z,14.82
2019-05-18T20:39:44.365Z,14.75
2019-05-18T20:42:14.877Z,14.79
2019-05-18T20:44:45.404Z,14.75
2019-05-18T20:47:15.904Z,14.62
2019-05-18T20:49:46.435Z,14.58
2019-05-18T20:52:16.913Z,14.51
2019-05-18T20:54:47.420Z,14.42
2019-05-18T20:57:17.929Z,14.51
2019-05-18T20:59:48.422Z,14.41
2019-05-18T21:02:18.916Z,14.40
2019-05-18T21:04:49.517Z,14.36
2019-05-18T21:07:19.997Z,14.30
2019-05-18T21:09:50.515Z,14.29
2019-05-18T21:12:21.012Z,14.23
2019-05-18T21:14:51.514Z,14.03
2019-05-18T21:17:22.066Z,14.14
2019-05-18T21:19:52.521Z,14.13
2019-05-18T21:22:23.021Z,14.02
2019-05-18T21:24:53.609Z,13.97
2019-05-18T21:27:24.094Z,13.87
2019-05-18T21:29:54.565Z,13.90
2019-05-18T21:32:25.057Z,13.78
2019-05-18T21:34:55.589Z,13.72
2019-05-18T21:37:26.081Z,13.70
2019-05-18T21:39:56.594Z,13.86
2019-05-18T21:42:27.146Z,13.90
2019-05-18T21:44:57.637Z,13.86
2019-05-18T21:47:28.191Z,13.66
2019-05-18T21:49:58.892Z,13.71
2019-05-18T21:52:33.277Z,13.71
2019-05-18T21:55:03.827Z,13.57
2019-05-18T21:57:34.355Z,13.69
2019-05-18T22:00:06.660Z,13.60
2019-05-18T22:02:37.300Z,13.62
2019-05-18T22:05:08.505Z,13.63
2019-05-18T22:07:39.120Z,13.64
2019-05-18T22:10:24.906Z,13.48
2019-05-18T22:12:43.554Z,13.57
2019-05-18T22:15:14.659Z,13.65
2019-05-18T22:18:03.486Z,13.46
2019-05-18T22:20:39.867Z,13.37
2019-05-18T22:23:08.605Z,13.50
2019-05-18T22:25:39.152Z,13.34
2019-05-18T22:28:09.638Z,13.26
2019-05-18T22:30:41.275Z,13.25
2019-05-18T22:33:11.785Z,13.24
2019-05-18T22:35:42.283Z,13.23
2019-05-18T22:38:12.791Z,13.29
2019-05-18T22:40:43.320Z,13.18
2019-05-18T22:43:13.791Z,13.08
2019-05-18T22:45:44.312Z,13.18
2019-05-18T22:48:14.851Z,13.20
2019-05-18T22:50:45.473Z,13.11
2019-05-18T22:53:16.017Z,12.99
2019-05-18T22:55:46.561Z,13.05
2019-05-18T22:58:17.059Z,12.98
2019-05-18T23:00:47.566Z,12.84
2019-05-18T23:03:18.201Z,13.00
2019-05-18T23:05:48.786Z,12.88
2019-05-18T23:08:19.300Z,12.89
2019-05-18T23:10:49.786Z,12.84
2019-05-18T23:13:20.297Z,12.77
2019-05-18T23:15:50.900Z,12.83
2019-05-18T23:18:21.734Z,12.69
2019-05-18T23:20:52.299Z,12.67
2019-05-18T23:23:22.828Z,12.64
2019-05-18T23:25:53.378Z,12.51
2019-05-18T23:28:23.880Z,12.49
2019-05-18T23:30:54.362Z,12.64
2019-05-18T23:33:26.508Z,12.59
2019-05-18T23:35:56.996Z,12.54
2019-05-18T23:38:27.562Z,12.60
2019-05-18T23:40:58.045Z,12.62
2019-05-18T23:43:28.944Z,12.70
2019-05-18T23:45:59.556Z,12.55
2019-05-18T23:48:30.095Z,12.63
2019-05-18T23:51:00.568Z,12.61
2019-05-18T23:53:31.753Z,12.72
2019-05-18T23:56:02.702Z,12.70
2019-05-18T23:58:33.352Z,12.54
